Time;durP1;ratioP1;P1;durP2;ratioP2;P2;SDS_P1;SDS_P2;PMS_P1;PMS_P2;Temp;Humidity;BMP_temperature;BMP_pressure;BME280_temperature;BME280_humidity;BME280_pressure;Samples;Min_cycle;Max_cycle;Signal;HPM_P1;HPM_P2
2022/03/02 00:01:38;;;;;;;;;;;;;;;;;;5108317;28;1140;-84
2022/03/02 00:04:03;;;;;;;;;;;;;;;;;;5097965;28;1151;-83
2022/03/02 00:06:29;;;;;;;;;;;;;;;;;;5095838;28;1056;-83
2022/03/02 00:08:54;;;;;;;;;;;;;;;;;;5086359;28;1020;-83
2022/03/02 00:11:19;;;;;;;;;;;;;;;;;;5076645;28;1182;-83
2022/03/02 00:13:48;;;;;;;;;;;;;;;;;;5081816;28;1981;-83
2022/03/02 00:16:14;;;;;;;;;;;;;;;;;;5076921;28;1124;-83
2022/03/02 00:18:39;;;;;;;;;;;;;;;;;;5087489;28;1318;-82
2022/03/02 00:21:05;;;;;;;;;;;;;;;;;;5101471;28;1143;-83
2022/03/02 00:23:30;;;;;;;;;;;;;;;;;;5075748;28;1179;-82
2022/03/02 00:25:56;;;;;;;;;;;;;;;;;;5068365;28;1271;-83
2022/03/02 00:28:21;;;;;;;;;;;;;;;;;;5071739;28;1183;-83
2022/03/02 00:30:49;;;;;;;;;;;;;;;;;;5088780;28;1155;-82
2022/03/02 00:33:15;;;;;;;;;;;;;;;;;;5073424;28;1894;-83
2022/03/02 00:35:40;;;;;;;;;;;;;;;;;;5104314;28;1135;-83
2022/03/02 00:38:11;;;;;;;;;;;;;;;;;;5088483;28;1251;-83
2022/03/02 00:40:37;;;;;;;;;;;;;;;;;;5062841;28;1191;-84
2022/03/02 00:43:03;;;;;;;;;;;;;;;;;;5081811;28;1613;-83
2022/03/02 00:45:29;;;;;;;;;;;;;;;;;;5068405;28;1303;-83
2022/03/02 00:47:54;;;;;;;;;;;;;;;;;;5073762;28;1440;-83
2022/03/02 00:50:19;;;;;;;;;;;;;;;;;;5079207;28;1309;-83
2022/03/02 00:52:54;;;;;;;;;;;;;;;;;;5073219;28;1190;-83
2022/03/02 00:55:19;;;;;;;;;;;;;;;;;;5068935;28;1993;-83
2022/03/02 00:57:55;;;;;;;;;;;;;;;;;;5084961;28;1148;-83
2022/03/02 01:00:21;;;;;;;;;;;;;;;;;;5088096;28;1202;-83
2022/03/02 01:02:49;;;;;;;;;;;;;;;;;;5083119;28;1289;-83
2022/03/02 01:05:14;;;;;;;;;;;;;;;;;;5084156;28;1123;-83
2022/03/02 01:07:39;;;;;;;;;;;;;;;;;;5087234;28;1231;-84
2022/03/02 01:10:10;;;;;;;;;;;;;;;;;;5068904;28;1230;-83
2022/03/02 01:12:36;;;;;;;;;;;;;;;;;;5105651;28;1127;-83
2022/03/02 01:15:02;;;;;;;;;;;;;;;;;;5106480;28;1913;-83
2022/03/02 01:17:27;;;;;;;;;;;;;;;;;;5094014;28;1206;-84
2022/03/02 01:19:52;;;;;;;;;;;;;;;;;;5083541;28;1226;-83
2022/03/02 01:22:18;;;;;;;;;;;;;;;;;;5069215;28;1199;-83
2022/03/02 01:24:44;;;;;;;;;;;;;;;;;;5076952;28;1207;-83
2022/03/02 01:27:09;;;;;;;;;;;;;;;;;;5058671;28;1180;-83
2022/03/02 01:29:35;;;;;;;;;;;;;;;;;;5090980;28;1305;-83
2022/03/02 01:32:01;;;;;;;;;;;;;;;;;;5087723;28;1152;-83
2022/03/02 01:34:29;;;;;;;;;;;;;;;;;;5101919;28;1961;-82
2022/03/02 01:36:54;;;;;;;;;;;;;;;;;;5069118;28;1156;-83
2022/03/02 01:39:23;;;;;;;;;;;;;;;;;;5096645;28;1124;-83
2022/03/02 01:41:56;;;;;;;;;;;;;;;;;;5078331;28;1202;-83
2022/03/02 01:44:21;;;;;;;;;;;;;;;;;;5094241;28;1222;-82
2022/03/02 01:46:53;;;;;;;;;;;;;;;;;;5105904;28;1139;-83
2022/03/02 01:49:27;;;;;;;;;;;;;;;;;;5098471;28;1289;-82
2022/03/02 01:51:55;;;;;;;;;;;;;;;;;;5095350;28;1381;-83
2022/03/02 01:54:20;;;;;;;;;;;;;;;;;;5096237;28;1956;-83
2022/03/02 01:56:46;;;;;;;;;;;;;;;;;;5093070;28;1306;-83
2022/03/02 01:59:11;;;;;;;;;;;;;;;;;;5067146;28;1207;-83
2022/03/02 02:01:36;;;;;;;;;;;;;;;;;;5092853;28;1302;-84
2022/03/02 02:04:03;;;;;;;;;;;;;;;;;;5055718;28;1172;-83
2022/03/02 02:06:29;;;;;;;;;;;;;;;;;;5081672;28;1052;-83
2022/03/02 02:09:01;;;;;;;;;;;;;;;;;;5049140;28;1370;-83
2022/03/02 02:11:26;;;;;;;;;;;;;;;;;;5103317;28;1136;-83
2022/03/02 02:13:55;;;;;;;;;;;;;;;;;;5105572;28;1949;-83
2022/03/02 02:16:23;;;;;;;;;;;;;;;;;;5087606;28;1159;-83
2022/03/02 02:18:50;;;;;;;;;;;;;;;;;;5084999;28;1307;-83
2022/03/02 02:21:15;;;;;;;;;;;;;;;;;;5047661;28;1234;-83
2022/03/02 02:23:41;;;;;;;;;;;;;;;;;;5050238;28;1373;-83
2022/03/02 02:26:17;;;;;;;;;;;;;;;;;;5079164;28;1121;-82
2022/03/02 02:28:43;;;;;;;;;;;;;;;;;;5083894;28;1214;-82
2022/03/02 02:31:08;;;;;;;;;;;;;;;;;;5102888;28;1045;-82
2022/03/02 02:33:33;;;;;;;;;;;;;;;;;;5102853;28;1929;-83
2022/03/02 02:35:59;;;;;;;;;;;;;;;;;;5069308;28;1190;-83
2022/03/02 02:38:24;;;;;;;;;;;;;;;;;;5071398;28;1218;-82
2022/03/02 02:41:00;;;;;;;;;;;;;;;;;;5077503;28;1168;-82
2022/03/02 02:43:25;;;;;;;;;;;;;;;;;;5074585;28;1286;-82
2022/03/02 02:45:58;;;;;;;;;;;;;;;;;;5085681;28;1140;-83
2022/03/02 02:48:23;;;;;;;;;;;;;;;;;;5047905;28;1255;-83
2022/03/02 02:50:49;;;;;;;;;;;;;;;;;;5093736;28;1207;-82
2022/03/02 02:53:23;;;;;;;;;;;;;;;;;;5104008;28;1987;-82
2022/03/02 02:55:50;;;;;;;;;;;;;;;;;;5071604;28;1395;-82
2022/03/02 02:58:16;;;;;;;;;;;;;;;;;;5064757;28;1218;-82
2022/03/02 03:00:44;;;;;;;;;;;;;;;;;;5077286;28;1291;-82
2022/03/02 03:03:09;;;;;;;;;;;;;;;;;;5082488;28;1285;-82
2022/03/02 03:05:34;;;;;;;;;;;;;;;;;;5102939;28;1228;-83
2022/03/02 03:08:04;;;;;;;;;;;;;;;;;;5086176;28;1268;-82
2022/03/02 03:10:30;;;;;;;;;;;;;;;;;;5107131;28;1147;-82
2022/03/02 03:12:56;;;;;;;;;;;;;;;;;;5069617;28;1532;-83
2022/03/02 03:15:22;;;;;;;;;;;;;;;;;;5081481;28;1989;-81
2022/03/02 03:17:47;;;;;;;;;;;;;;;;;;5074323;28;1144;-81
2022/03/02 03:20:14;;;;;;;;;;;;;;;;;;5079178;28;1089;-82
2022/03/02 03:22:40;;;;;;;;;;;;;;;;;;5088412;28;1206;-81
2022/03/02 03:25:07;;;;;;;;;;;;;;;;;;5094644;28;1226;-82
2022/03/02 03:27:32;;;;;;;;;;;;;;;;;;5063528;28;1167;-82
2022/03/02 03:30:01;;;;;;;;;;;;;;;;;;5067447;28;1195;-82
2022/03/02 03:32:26;;;;;;;;;;;;;;;;;;5053431;28;1236;-83
2022/03/02 03:34:52;;;;;;;;;;;;;;;;;;5071911;28;1964;-82
2022/03/02 03:37:17;;;;;;;;;;;;;;;;;;5098813;28;1148;-81
2022/03/02 03:39:42;;;;;;;;;;;;;;;;;;5058669;28;1163;-82
2022/03/02 03:42:08;;;;;;;;;;;;;;;;;;5079329;28;1096;-83
2022/03/02 03:44:34;;;;;;;;;;;;;;;;;;5070902;28;1168;-83
2022/03/02 03:47:07;;;;;;;;;;;;;;;;;;5083782;28;1188;-82
2022/03/02 03:49:33;;;;;;;;;;;;;;;;;;5083233;28;1413;-82
2022/03/02 03:52:01;;;;;;;;;;;;;;;;;;5103259;28;1273;-83
2022/03/02 03:54:27;;;;;;;;;;;;;;;;;;5057186;28;1894;-81
2022/03/02 03:56:52;;;;;;;;;;;;;;;;;;5097336;28;1234;-82
2022/03/02 03:59:26;;;;;;;;;;;;;;;;;;5104381;28;1176;-81
2022/03/02 04:01:51;;;;;;;;;;;;;;;;;;5084827;28;1190;-81
2022/03/02 04:04:17;;;;;;;;;;;;;;;;;;5053003;28;1164;-82
2022/03/02 04:06:42;;;;;;;;;;;;;;;;;;5072717;28;1136;-81
2022/03/02 04:09:07;;;;;;;;;;;;;;;;;;5081218;28;1101;-82
2022/03/02 04:11:33;;;;;;;;;;;;;;;;;;5084111;28;1203;-82
2022/03/02 04:14:02;;;;;;;;;;;;;;;;;;5074628;28;1926;-82
2022/03/02 04:16:27;;;;;;;;;;;;;;;;;;5083476;28;1215;-81
2022/03/02 04:18:52;;;;;;;;;;;;;;;;;;5084258;28;1566;-81
2022/03/02 04:21:17;;;;;;;;;;;;;;;;;;5086902;28;1099;-82
2022/03/02 04:23:43;;;;;;;;;;;;;;;;;;5098487;28;1056;-81
2022/03/02 04:26:17;;;;;;;;;;;;;;;;;;5065627;28;1211;-81
2022/03/02 04:28:43;;;;;;;;;;;;;;;;;;5086829;28;1218;-81
2022/03/02 04:31:08;;;;;;;;;;;;;;;;;;5067648;28;1271;-81
2022/03/02 04:33:33;;;;;;;;;;;;;;;;;;5070666;28;1879;-81
2022/03/02 04:36:09;;;;;;;;;;;;;;;;;;5059408;28;1203;-81
2022/03/02 04:38:35;;;;;;;;;;;;;;;;;;5105993;28;1147;-81
2022/03/02 04:41:06;;;;;;;;;;;;;;;;;;5069270;28;1340;-81
2022/03/02 04:43:32;;;;;;;;;;;;;;;;;;5052084;28;1216;-81
2022/03/02 04:45:57;;;;;;;;;;;;;;;;;;5070408;28;1422;-81
2022/03/02 04:48:23;;;;;;;;;;;;;;;;;;5087837;28;1040;-80
2022/03/02 04:50:48;;;;;;;;;;;;;;;;;;5087175;28;1203;-81
2022/03/02 04:53:16;;;;;;;;;;;;;;;;;;5079443;28;1913;-81
2022/03/02 04:55:42;;;;;;;;;;;;;;;;;;5092210;28;1286;-81
2022/03/02 04:58:07;;;;;;;;;;;;;;;;;;5064675;28;1295;-81
2022/03/02 05:00:35;;;;;;;;;;;;;;;;;;5093798;28;1179;-81
2022/03/02 05:03:10;;;;;;;;;;;;;;;;;;5069921;28;1199;-81
2022/03/02 05:05:36;;;;;;;;;;;;;;;;;;5068767;28;1774;-82
2022/03/02 05:08:08;;;;;;;;;;;;;;;;;;5070764;28;1281;-83
2022/03/02 05:10:34;;;;;;;;;;;;;;;;;;5084203;28;1456;-83
2022/03/02 05:13:17;;;;;;;;;;;;;;;;;;5089186;28;1305;-80
2022/03/02 05:15:42;;;;;;;;;;;;;;;;;;5110296;28;1171;-81
2022/03/02 05:18:11;;;;;;;;;;;;;;;;;;5106811;27;1247;-82
2022/03/02 05:20:37;;;;;;;;;;;;;;;;;;5105728;28;1116;-82
2022/03/02 05:23:11;;;;;;;;;;;;;;;;;;5088942;28;1140;-82
2022/03/02 05:25:37;;;;;;;;;;;;;;;;;;5107744;28;1211;-83
2022/03/02 05:28:09;;;;;;;;;;;;;;;;;;5053235;28;1212;-82
2022/03/02 05:30:34;;;;;;;;;;;;;;;;;;5072178;28;1195;-82
2022/03/02 05:33:10;;;;;;;;;;;;;;;;;;5056215;28;1272;-81
2022/03/02 05:35:35;;;;;;;;;;;;;;;;;;5087341;28;1164;-81
2022/03/02 05:38:00;;;;;;;;;;;;;;;;;;5094144;28;1120;-80
2022/03/02 05:40:26;;;;;;;;;;;;;;;;;;5089572;28;1362;-81
2022/03/02 05:42:52;;;;;;;;;;;;;;;;;;5088011;28;1155;-82
2022/03/02 05:45:17;;;;;;;;;;;;;;;;;;5051449;28;1220;-81
2022/03/02 05:47:42;;;;;;;;;;;;;;;;;;5069773;28;1288;-81
2022/03/02 05:50:11;;;;;;;;;;;;;;;;;;5048720;28;1248;-80
2022/03/02 05:52:36;;;;;;;;;;;;;;;;;;5069327;28;1319;-82
2022/03/02 05:55:02;;;;;;;;;;;;;;;;;;5085884;28;1961;-81
2022/03/02 05:57:28;;;;;;;;;;;;;;;;;;5065853;28;1452;-82
2022/03/02 05:59:53;;;;;;;;;;;;;;;;;;5057742;28;1353;-83
2022/03/02 06:02:20;;;;;;;;;;;;;;;;;;5070148;28;1235;-80
2022/03/02 06:04:47;;;;;;;;;;;;;;;;;;5066377;28;1325;-82
2022/03/02 06:07:12;;;;;;;;;;;;;;;;;;5100567;28;1136;-82
2022/03/02 06:09:37;;;;;;;;;;;;;;;;;;5083891;28;1112;-82
2022/03/02 06:12:03;;;;;;;;;;;;;;;;;;5083767;28;1156;-82
2022/03/02 06:14:28;;;;;;;;;;;;;;;;;;5102986;28;1981;-83
2022/03/02 06:16:54;;;;;;;;;;;;;;;;;;5073080;28;1124;-82
2022/03/02 06:19:28;;;;;;;;;;;;;;;;;;5073842;28;1218;-81
2022/03/02 06:21:58;;;;;;;;;;;;;;;;;;5066715;28;1227;-82
2022/03/02 06:24:24;;;;;;;;;;;;;;;;;;5067755;28;1172;-82
2022/03/02 06:29:52;;;;;;;;;;;;;;;;;;5104113;28;1035;-81
2022/03/02 06:32:17;;;;;;;;;;;;;;;;;;5085377;28;1211;-80
2022/03/02 06:34:42;;;;;;;;;;;;;;;;;;5053434;28;1989;-81
2022/03/02 06:37:17;;;;;;;;;;;;;;;;;;5057134;28;1243;-82
2022/03/02 06:39:42;;;;;;;;;;;;;;;;;;5050170;28;1296;-80
2022/03/02 06:42:25;;;;;;;;;;;;;;;;;;5068876;28;1338;-80
2022/03/02 06:44:55;;;;;;;;;;;;;;;;;;5066420;28;1241;-82
2022/03/02 06:47:29;;;;;;;;;;;;;;;;;;5081657;28;1405;-81
2022/03/02 06:50:03;;;;;;;;;;;;;;;;;;5100052;28;1218;-82
2022/03/02 06:52:33;;;;;;;;;;;;;;;;;;5085188;28;1371;-82
2022/03/02 06:55:00;;;;;;;;;;;;;;;;;;5086527;28;1926;-81
2022/03/02 06:57:27;;;;;;;;;;;;;;;;;;5084006;28;1190;-81
2022/03/02 06:59:53;;;;;;;;;;;;;;;;;;5087179;28;1207;-81
2022/03/02 07:02:33;;;;;;;;;;;;;;;;;;5068954;28;1196;-82
2022/03/02 07:05:00;;;;;;;;;;;;;;;;;;5101016;28;1159;-82
2022/03/02 07:07:30;;;;;;;;;;;;;;;;;;5087281;28;1039;-81
2022/03/02 07:09:56;;;;;;;;;;;;;;;;;;5087225;28;1223;-81
2022/03/02 07:12:21;;;;;;;;;;;;;;;;;;5084830;28;1338;-81
2022/03/02 07:14:49;;;;;;;;;;;;;;;;;;5094984;28;2000;-81
2022/03/02 07:17:18;;;;;;;;;;;;;;;;;;5084491;28;1202;-81
2022/03/02 07:19:43;;;;;;;;;;;;;;;;;;5100118;28;1076;-81
2022/03/02 07:22:32;;;;;;;;;;;;;;;;;;5105679;28;1135;-81
2022/03/02 07:25:00;;;;;;;;;;;;;;;;;;5104102;28;1051;-81
2022/03/02 07:27:26;;;;;;;;;;;;;;;;;;5084340;28;1126;-81
2022/03/02 07:29:54;;;;;;;;;;;;;;;;;;5066039;28;1164;-81
2022/03/02 07:32:30;;;;;;;;;;;;;;;;;;5082539;28;1148;-80
2022/03/02 07:34:57;;;;;;;;;;;;;;;;;;5073032;28;1910;-79
2022/03/02 07:37:23;;;;;;;;;;;;;;;;;;5088470;28;1175;-79
2022/03/02 07:39:48;;;;;;;;;;;;;;;;;;5088522;28;1155;-80
2022/03/02 07:42:23;;;;;;;;;;;;;;;;;;5083384;28;1132;-79
2022/03/02 07:44:49;;;;;;;;;;;;;;;;;;5084519;28;1203;-81
2022/03/02 07:47:18;;;;;;;;;;;;;;;;;;5074278;28;1312;-81
2022/03/02 07:49:43;;;;;;;;;;;;;;;;;;5094007;28;1120;-80
2022/03/02 07:52:09;;;;;;;;;;;;;;;;;;5073862;28;1175;-80
2022/03/02 07:54:37;;;;;;;;;;;;;;;;;;5064153;28;1905;-80
2022/03/02 07:57:03;;;;;;;;;;;;;;;;;;5084778;28;1338;-80
2022/03/02 07:59:36;;;;;;;;;;;;;;;;;;5065657;28;1396;-80
2022/03/02 08:02:02;;;;;;;;;;;;;;;;;;5083871;28;1140;-80
2022/03/02 08:04:37;;;;;;;;;;;;;;;;;;5078577;28;1377;-79
2022/03/02 08:07:03;;;;;;;;;;;;;;;;;;5067912;28;1314;-80
2022/03/02 08:09:31;;;;;;;;;;;;;;;;;;5070715;28;1116;-78
2022/03/02 08:11:58;;;;;;;;;;;;;;;;;;5086150;28;1080;-79
2022/03/02 08:14:32;;;;;;;;;;;;;;;;;;5087435;28;1973;-81
2022/03/02 08:16:58;;;;;;;;;;;;;;;;;;5086645;28;1140;-79
2022/03/02 08:19:33;;;;;;;;;;;;;;;;;;5095543;28;1180;-82
2022/03/02 08:22:02;;;;;;;;;;;;;;;;;;5068145;28;1224;-79
2022/03/02 08:24:29;;;;;;;;;;;;;;;;;;5085086;28;1159;-79
2022/03/02 08:26:58;;;;;;;;;;;;;;;;;;5074564;28;1196;-80
2022/03/02 08:29:33;;;;;;;;;;;;;;;;;;5075709;28;1494;-81
2022/03/02 08:32:00;;;;;;;;;;;;;;;;;;5075961;28;1304;-77
2022/03/02 08:34:34;;;;;;;;;;;;;;;;;;5065950;28;1886;-75
2022/03/02 08:37:00;;;;;;;;;;;;;;;;;;5085466;28;1229;-75
2022/03/02 08:39:26;;;;;;;;;;;;;;;;;;5101604;28;1092;-76
2022/03/02 08:41:52;;;;;;;;;;;;;;;;;;5088753;28;1191;-75
2022/03/02 08:44:28;;;;;;;;;;;;;;;;;;5091395;28;1307;-75
2022/03/02 08:46:53;;;;;;;;;;;;;;;;;;5108611;28;1202;-77
2022/03/02 08:49:29;;;;;;;;;;;;;;;;;;5107551;28;1289;-77
2022/03/02 08:51:56;;;;;;;;;;;;;;;;;;5073998;28;1359;-78
2022/03/02 08:54:26;;;;;;;;;;;;;;;;;;5089898;28;1898;-77
2022/03/02 08:56:52;;;;;;;;;;;;;;;;;;5088803;28;1337;-76
2022/03/02 08:59:27;;;;;;;;;;;;;;;;;;5090636;28;1271;-74
2022/03/02 09:01:53;;;;;;;;;;;;;;;;;;5086818;28;1172;-75
2022/03/02 09:04:33;;;;;;;;;;;;;;;;;;5068313;28;1351;-75
2022/03/02 09:06:59;;;;;;;;;;;;;;;;;;5093486;28;1049;-75
2022/03/02 09:09:28;;;;;;;;;;;;;;;;;;5106048;28;1330;-74
2022/03/02 09:11:55;;;;;;;;;;;;;;;;;;5071188;28;1199;-73
2022/03/02 09:14:29;;;;;;;;;;;;;;;;;;5064561;28;1914;-76
2022/03/02 09:16:55;;;;;;;;;;;;;;;;;;5066295;28;1508;-75
2022/03/02 09:19:21;;;;;;;;;;;;;;;;;;5086592;28;1160;-75
2022/03/02 09:21:47;;;;;;;;;;;;;;;;;;5086420;28;1145;-74
2022/03/02 09:24:13;;;;;;;;;;;;;;;;;;5069624;28;1278;-75
2022/03/02 09:26:38;;;;;;;;;;;;;;;;;;5082799;28;1244;-73
2022/03/02 09:29:05;;;;;;;;;;;;;;;;;;5060589;28;1195;-75
2022/03/02 09:31:31;;;;;;;;;;;;;;;;;;5065620;28;1345;-75
2022/03/02 09:33:58;;;;;;;;;;;;;;;;;;5065806;28;1889;-74
2022/03/02 09:36:28;;;;;;;;;;;;;;;;;;5086703;28;1251;-75
2022/03/02 09:38:54;;;;;;;;;;;;;;;;;;5089255;28;1171;-74
2022/03/02 09:41:38;;;;;;;;;;;;;;;;;;5067134;28;1265;-76
2022/03/02 09:44:04;;;;;;;;;;;;;;;;;;5098225;28;1088;-74
2022/03/02 09:46:34;;;;;;;;;;;;;;;;;;5058740;28;1159;-74
2022/03/02 09:49:05;;;;;;;;;;;;;;;;;;5089051;28;1120;-75
2022/03/02 09:51:31;;;;;;;;;;;;;;;;;;5065531;28;1203;-75
2022/03/02 09:53:57;;;;;;;;;;;;;;;;;;5084602;28;1894;-75
2022/03/02 09:56:23;;;;;;;;;;;;;;;;;;5064013;28;1219;-75
2022/03/02 09:58:52;;;;;;;;;;;;;;;;;;5049153;28;1243;-76
2022/03/02 10:01:21;;;;;;;;;;;;;;;;;;5092758;28;1294;-75
2022/03/02 10:03:47;;;;;;;;;;;;;;;;;;5084194;28;1537;-75
2022/03/02 10:06:16;;;;;;;;;;;;;;;;;;5077331;28;1329;-73
2022/03/02 10:08:45;;;;;;;;;;;;;;;;;;5084342;28;1155;-74
2022/03/02 10:11:17;;;;;;;;;;;;;;;;;;5066121;28;1152;-74
2022/03/02 10:13:43;;;;;;;;;;;;;;;;;;5065280;28;1910;-75
2022/03/02 10:16:09;;;;;;;;;;;;;;;;;;5050084;28;1220;-75
2022/03/02 10:18:35;;;;;;;;;;;;;;;;;;5048283;28;1224;-75
2022/03/02 10:21:02;;;;;;;;;;;;;;;;;;5085318;28;1164;-75
2022/03/02 10:23:40;;;;;;;;;;;;;;;;;;5085544;28;1105;-75
2022/03/02 10:26:15;;;;;;;;;;;;;;;;;;5086323;28;1132;-75
2022/03/02 10:28:52;;;;;;;;;;;;;;;;;;5075007;28;1179;-75
2022/03/02 10:31:36;;;;;;;;;;;;;;;;;;5087876;28;1202;-76
2022/03/02 10:34:25;;;;;;;;;;;;;;;;;;5065101;28;1955;-75
2022/03/02 10:37:06;;;;;;;;;;;;;;;;;;5070706;28;1201;-75
2022/03/02 10:39:49;;;;;;;;;;;;;;;;;;5104615;28;1179;-76
2022/03/02 10:42:36;;;;;;;;;;;;;;;;;;5079709;28;1221;-75
2022/03/02 10:45:13;;;;;;;;;;;;;;;;;;5085295;28;1225;-75
2022/03/02 10:48:10;;;;;;;;;;;;;;;;;;5073401;28;1363;-72
2022/03/02 10:50:37;;;;;;;;;;;;;;;;;;5060386;28;1345;-76
2022/03/02 10:53:03;;;;;;;;;;;;;;;;;;5082700;28;1207;-74
2022/03/02 10:55:40;;;;;;;;;;;;;;;;;;5105144;28;1968;-74
2022/03/02 10:58:06;;;;;;;;;;;;;;;;;;5083788;28;1178;-76
2022/03/02 11:00:34;;;;;;;;;;;;;;;;;;5103952;28;1123;-75
2022/03/02 11:03:01;;;;;;;;;;;;;;;;;;5103892;28;1088;-74
2022/03/02 11:05:29;;;;;;;;;;;;;;;;;;5082961;28;1247;-75
2022/03/02 11:07:56;;;;;;;;;;;;;;;;;;5083760;28;1249;-75
2022/03/02 11:10:22;;;;;;;;;;;;;;;;;;5086684;28;1310;-75
2022/03/02 11:12:48;;;;;;;;;;;;;;;;;;5100107;28;1214;-75
2022/03/02 11:15:14;;;;;;;;;;;;;;;;;;5085930;28;1914;-75
2022/03/02 11:18:00;;;;;;;;;;;;;;;;;;5093536;28;1127;-76
2022/03/02 11:20:29;;;;;;;;;;;;;;;;;;5067746;28;1193;-76
2022/03/02 11:23:02;;;;;;;;;;;;;;;;;;5085830;28;1151;-75
2022/03/02 11:25:48;;;;;;;;;;;;;;;;;;5079055;28;1563;-75
2022/03/02 11:28:15;;;;;;;;;;;;;;;;;;5086310;28;1089;-74
2022/03/02 11:30:45;;;;;;;;;;;;;;;;;;5063248;28;1355;-77
2022/03/02 11:33:10;;;;;;;;;;;;;;;;;;5062792;28;1281;-76
2022/03/02 11:35:39;;;;;;;;;;;;;;;;;;5066597;28;1997;-75
2022/03/02 11:38:06;;;;;;;;;;;;;;;;;;5103515;28;1044;-76
2022/03/02 11:40:42;;;;;;;;;;;;;;;;;;5103294;28;1230;-76
2022/03/02 11:43:13;;;;;;;;;;;;;;;;;;5102114;28;1107;-75
2022/03/02 11:45:39;;;;;;;;;;;;;;;;;;5102129;28;1163;-76
2022/03/02 11:48:13;;;;;;;;;;;;;;;;;;5066914;28;1404;-76
2022/03/02 11:50:58;;;;;;;;;;;;;;;;;;5082140;28;1194;-76
2022/03/02 11:53:31;;;;;;;;;;;;;;;;;;5070909;28;1981;-75
2022/03/02 11:55:56;;;;;;;;;;;;;;;;;;5061148;28;1270;-74
2022/03/02 11:58:21;;;;;;;;;;;;;;;;;;5061692;28;1139;-75
2022/03/02 12:00:47;;;;;;;;;;;;;;;;;;5062263;28;1279;-75
2022/03/02 12:03:12;;;;;;;;;;;;;;;;;;5067405;28;1277;-75
2022/03/02 12:05:40;;;;;;;;;;;;;;;;;;5069095;28;1235;-75
2022/03/02 12:08:07;;;;;;;;;;;;;;;;;;5079041;28;1247;-73
2022/03/02 12:10:42;;;;;;;;;;;;;;;;;;5061703;28;1203;-75
2022/03/02 12:13:08;;;;;;;;;;;;;;;;;;5059980;28;1301;-76
2022/03/02 12:16:00;;;;;;;;;;;;;;;;;;5067175;28;1967;-75
2022/03/02 12:18:25;;;;;;;;;;;;;;;;;;5071144;28;1220;-74
2022/03/02 12:20:54;;;;;;;;;;;;;;;;;;5062876;28;1148;-75
2022/03/02 12:23:21;;;;;;;;;;;;;;;;;;5081071;28;1218;-75
2022/03/02 12:25:47;;;;;;;;;;;;;;;;;;5077942;28;1245;-75
2022/03/02 12:28:13;;;;;;;;;;;;;;;;;;5077087;28;1132;-75
2022/03/02 12:30:42;;;;;;;;;;;;;;;;;;5081399;28;1288;-76
2022/03/02 12:33:08;;;;;;;;;;;;;;;;;;5072640;28;1085;-75
2022/03/02 12:35:34;;;;;;;;;;;;;;;;;;5071635;28;1902;-75
2022/03/02 12:38:01;;;;;;;;;;;;;;;;;;5078114;28;1112;-74
2022/03/02 12:40:29;;;;;;;;;;;;;;;;;;5082729;28;1267;-75
2022/03/02 12:42:55;;;;;;;;;;;;;;;;;;5060792;28;1673;-75
2022/03/02 12:45:21;;;;;;;;;;;;;;;;;;5044050;28;1206;-74
2022/03/02 12:47:47;;;;;;;;;;;;;;;;;;5060721;28;1096;-75
2022/03/02 12:50:13;;;;;;;;;;;;;;;;;;5056800;28;1157;-75
2022/03/02 12:52:47;;;;;;;;;;;;;;;;;;5068328;28;1217;-75
2022/03/02 12:55:13;;;;;;;;;;;;;;;;;;5063563;28;1955;-75
2022/03/02 12:57:46;;;;;;;;;;;;;;;;;;5046252;28;1273;-74
2022/03/02 13:00:14;;;;;;;;;;;;;;;;;;5064442;28;1347;-75
2022/03/02 13:02:51;;;;;;;;;;;;;;;;;;;;;
2022/03/02 13:05:19;;;;;;;;;;;;;;;;;;5071779;28;1247;-79
2022/03/02 13:08:13;;;;;;;;;;;;;;;;;;5074939;28;1307;-81
2022/03/02 13:10:45;;;;;;;;;;;;;;;;;;5049440;28;1263;-80
2022/03/02 13:13:11;;;;;;;;;;;;;;;;;;5082732;28;1372;-85
2022/03/02 13:15:48;;;;;;;;;;;;;;;;;;5090551;28;1910;-80
2022/03/02 13:18:17;;;;;;;;;;;;;;;;;;5059880;28;1115;-80
2022/03/02 13:20:47;;;;;;;;;;;;;;;;;;5063124;28;1204;-83
2022/03/02 13:23:15;;;;;;;;;;;;;;;;;;5063669;28;1194;-80
2022/03/02 13:25:59;;;;;;;;;;;;;;;;;;5066275;28;1132;-83
2022/03/02 13:28:31;;;;;;;;;;;;;;;;;;5078854;28;1089;-78
2022/03/02 13:31:12;;;;;;;;;;;;;;;;;;5084675;28;1268;-80
2022/03/02 13:33:56;;;;;;;;;;;;;;;;;;5066032;28;1898;-78
2022/03/02 13:36:34;;;;;;;;;;;;;;;;;;5081241;28;1171;-78
2022/03/02 13:39:07;;;;;;;;;;;;;;;;;;5084944;28;1108;-78
2022/03/02 13:41:52;;;;;;;;;;;;;;;;;;5084689;28;1175;-78
2022/03/02 13:44:22;;;;;;;;;;;;;;;;;;5069154;28;1223;-78
2022/03/02 13:47:06;;;;;;;;;;;;;;;;;;5063570;28;1223;-77
2022/03/02 13:49:54;;;;;;;;;;;;;;;;;;5062042;28;1265;-75
2022/03/02 13:52:20;;;;;;;;;;;;;;;;;;5065727;28;1312;-77
2022/03/02 13:54:47;;;;;;;;;;;;;;;;;;5064285;28;1914;-75
2022/03/02 13:57:39;;;;;;;;;;;;;;;;;;5060859;28;1233;-75
2022/03/02 14:00:20;;;;;;;;;;;;;;;;;;5058053;28;1331;-76
2022/03/02 14:02:51;;;;;;;;;;;;;;;;;;5064431;28;1128;-75
2022/03/02 14:05:17;;;;;;;;;;;;;;;;;;5059685;28;1344;-75
2022/03/02 14:07:43;;;;;;;;;;;;;;;;;;5064747;28;1160;-74
2022/03/02 14:10:13;;;;;;;;;;;;;;;;;;5061338;28;1197;-76
2022/03/02 14:12:47;;;;;;;;;;;;;;;;;;5060286;28;1182;-76
2022/03/02 14:15:13;;;;;;;;;;;;;;;;;;5072440;28;1914;-76
2022/03/02 14:17:38;;;;;;;;;;;;;;;;;;5049104;28;1211;-76
2022/03/02 14:20:04;;;;;;;;;;;;;;;;;;5040483;28;1468;-75
2022/03/02 14:22:30;;;;;;;;;;;;;;;;;;5065199;28;1380;-76
2022/03/02 14:24:55;;;;;;;;;;;;;;;;;;5047473;28;1220;-77
2022/03/02 14:27:22;;;;;;;;;;;;;;;;;;5062094;28;1165;-76
2022/03/02 14:29:53;;;;;;;;;;;;;;;;;;5063417;28;1382;-76
2022/03/02 14:32:28;;;;;;;;;;;;;;;;;;5064265;28;1389;-78
2022/03/02 14:34:55;;;;;;;;;;;;;;;;;;5062714;28;1955;-73
2022/03/02 14:37:22;;;;;;;;;;;;;;;;;;5063510;28;1260;-76
2022/03/02 14:40:05;;;;;;;;;;;;;;;;;;5064535;28;1204;-76
2022/03/02 14:42:31;;;;;;;;;;;;;;;;;;5061239;28;1126;-73
2022/03/02 14:45:08;;;;;;;;;;;;;;;;;;5060615;28;1340;-76
2022/03/02 14:47:34;;;;;;;;;;;;;;;;;;5062415;28;1411;-80
2022/03/02 14:49:59;;;;;;;;;;;;;;;;;;5065798;28;1175;-80
2022/03/02 14:52:32;;;;;;;;;;;;;;;;;;5070950;28;1207;-84
2022/03/02 14:54:58;;;;;;;;;;;;;;;;;;5073807;28;1897;-77
2022/03/02 14:57:23;;;;;;;;;;;;;;;;;;5066162;28;1438;-86
2022/03/02 14:59:59;;;;;;;;;;;;;;;;;;5088122;28;1238;-83
2022/03/02 15:02:29;;;;;;;;;;;;;;;;;;5077993;28;1141;-82
2022/03/02 15:04:55;;;;;;;;;;;;;;;;;;5073420;28;1218;-83
2022/03/02 15:07:21;;;;;;;;;;;;;;;;;;5093688;28;1207;-83
2022/03/02 15:10:05;;;;;;;;;;;;;;;;;;5070506;28;1196;-82
2022/03/02 15:12:31;;;;;;;;;;;;;;;;;;5085534;28;1305;-82
2022/03/02 15:15:23;;;;;;;;;;;;;;;;;;5103657;28;1915;-83
2022/03/02 15:17:48;;;;;;;;;;;;;;;;;;5093271;28;1430;-86
2022/03/02 15:20:14;;;;;;;;;;;;;;;;;;5079126;28;1140;-74
2022/03/02 15:22:41;;;;;;;;;;;;;;;;;;5099508;28;1012;-73
2022/03/02 15:25:10;;;;;;;;;;;;;;;;;;5083138;28;1423;-74
2022/03/02 15:27:35;;;;;;;;;;;;;;;;;;5084970;28;1545;-75
2022/03/02 15:30:09;;;;;;;;;;;;;;;;;;5084488;28;1199;-75
2022/03/02 15:32:35;;;;;;;;;;;;;;;;;;5105123;28;1051;-75
2022/03/02 15:35:00;;;;;;;;;;;;;;;;;;5097078;28;1885;-75
2022/03/02 15:37:30;;;;;;;;;;;;;;;;;;5085956;28;1392;-75
2022/03/02 15:39:58;;;;;;;;;;;;;;;;;;5103396;28;1227;-75
2022/03/02 15:42:29;;;;;;;;;;;;;;;;;;5068619;28;1341;-75
2022/03/02 15:45:05;;;;;;;;;;;;;;;;;;5081658;28;1350;-74
2022/03/02 15:47:32;;;;;;;;;;;;;;;;;;5064743;28;1339;-74
2022/03/02 15:49:58;;;;;;;;;;;;;;;;;;5067993;28;1307;-74
2022/03/02 15:52:38;;;;;;;;;;;;;;;;;;5080592;28;1317;-77
2022/03/02 15:55:03;;;;;;;;;;;;;;;;;;5081844;28;1925;-76
2022/03/02 15:57:29;;;;;;;;;;;;;;;;;;5066202;28;1228;-77
2022/03/02 16:00:06;;;;;;;;;;;;;;;;;;5084057;28;1291;-77
2022/03/02 16:02:34;;;;;;;;;;;;;;;;;;5103628;28;1071;-77
2022/03/02 16:05:07;;;;;;;;;;;;;;;;;;5096735;28;1202;-77
2022/03/02 16:07:33;;;;;;;;;;;;;;;;;;5101596;28;1156;-77
2022/03/02 16:10:03;;;;;;;;;;;;;;;;;;5067774;28;1248;-77
2022/03/02 16:12:45;;;;;;;;;;;;;;;;;;5082806;28;1076;-77
2022/03/02 16:15:12;;;;;;;;;;;;;;;;;;5082905;28;1971;-77
2022/03/02 16:17:44;;;;;;;;;;;;;;;;;;5103859;28;1124;-77
2022/03/02 16:20:21;;;;;;;;;;;;;;;;;;5078997;28;1236;-78
2022/03/02 16:22:47;;;;;;;;;;;;;;;;;;5085166;28;1458;-78
2022/03/02 16:25:16;;;;;;;;;;;;;;;;;;5096141;28;1195;-80
2022/03/02 16:27:41;;;;;;;;;;;;;;;;;;5067733;28;1180;-79
2022/03/02 16:30:07;;;;;;;;;;;;;;;;;;5083102;28;1178;-77
2022/03/02 16:32:32;;;;;;;;;;;;;;;;;;5069199;28;1188;-77
2022/03/02 16:35:00;;;;;;;;;;;;;;;;;;5081402;28;1887;-77
2022/03/02 16:37:27;;;;;;;;;;;;;;;;;;5068627;28;1107;-78
2022/03/02 16:39:54;;;;;;;;;;;;;;;;;;5051629;28;1285;-78
2022/03/02 16:42:19;;;;;;;;;;;;;;;;;;5071671;28;1214;-78
2022/03/02 16:44:44;;;;;;;;;;;;;;;;;;5089104;28;1120;-78
2022/03/02 16:47:14;;;;;;;;;;;;;;;;;;5085212;28;1290;-78
2022/03/02 16:49:41;;;;;;;;;;;;;;;;;;5085329;28;1298;-78
2022/03/02 16:52:06;;;;;;;;;;;;;;;;;;5104572;28;1191;-78
2022/03/02 16:54:32;;;;;;;;;;;;;;;;;;5070996;28;1969;-77
2022/03/02 16:57:06;;;;;;;;;;;;;;;;;;5075421;28;1366;-75
2022/03/02 16:59:32;;;;;;;;;;;;;;;;;;5064136;28;1193;-77
2022/03/02 17:01:59;;;;;;;;;;;;;;;;;;5082285;28;1290;-75
2022/03/02 17:04:25;;;;;;;;;;;;;;;;;;5079892;28;1163;-76
2022/03/02 17:06:51;;;;;;;;;;;;;;;;;;5065764;28;1297;-75
2022/03/02 17:09:17;;;;;;;;;;;;;;;;;;5064378;28;1431;-76
2022/03/02 17:11:43;;;;;;;;;;;;;;;;;;5077610;28;1261;-76
2022/03/02 17:14:08;;;;;;;;;;;;;;;;;;5078811;28;1979;-75
2022/03/02 17:16:34;;;;;;;;;;;;;;;;;;5100642;28;1283;-75
2022/03/02 17:19:00;;;;;;;;;;;;;;;;;;5102357;28;1160;-76